createdAt,value
2022-11-21T00:01:28.264Z,1.74
2022-11-21T00:16:28.218Z,1.55
2022-11-21T00:31:28.436Z,0.96
2022-11-21T00:46:28.308Z,1.34
2022-11-21T01:01:28.307Z,1.37
2022-11-21T01:16:28.194Z,0.34
2022-11-21T01:31:28.242Z,0.92
2022-11-21T01:46:28.219Z,0.58
2022-11-21T02:01:28.299Z,0.85
2022-11-21T02:16:28.380Z,0.62
2022-11-21T02:31:28.521Z,0.07
2022-11-21T02:46:28.361Z,0.33
2022-11-21T03:01:28.413Z,0.54
2022-11-21T03:16:28.401Z,0.05
2022-11-21T03:31:28.364Z,0.13
2022-11-21T03:46:28.392Z,0.06
2022-11-21T04:01:32.465Z,0.18
2022-11-21T04:16:28.383Z,0.00
2022-11-21T04:31:28.392Z,0.14
2022-11-21T04:46:28.698Z,0.11
2022-11-21T05:01:28.596Z,0.43
2022-11-21T05:16:28.663Z,1.08
2022-11-21T05:31:28.545Z,0.81
2022-11-21T05:46:28.742Z,0.46
2022-11-21T06:01:28.637Z,0.09
2022-11-21T06:16:28.639Z,0.00
2022-11-21T06:31:28.661Z,0.00
2022-11-21T06:46:28.791Z,0.48
2022-11-21T07:01:28.792Z,0.24
2022-11-21T07:16:28.777Z,0.56
2022-11-21T07:31:28.783Z,0.28
2022-11-21T07:46:28.848Z,0.48
2022-11-21T08:01:28.977Z,0.16
2022-11-21T08:16:29.006Z,0.10
2022-11-21T08:31:28.901Z,0.01
2022-11-21T08:46:28.875Z,0.33
2022-11-21T09:01:28.970Z,0.77
2022-11-21T09:16:28.903Z,0.39
2022-11-21T09:31:28.964Z,0.67
2022-11-21T09:46:28.865Z,0.93
2022-11-21T10:01:29.103Z,0.65
2022-11-21T10:16:29.007Z,0.83
2022-11-21T10:31:29.060Z,1.16
2022-11-21T10:46:29.014Z,1.10
2022-11-21T11:01:29.100Z,1.60
2022-11-21T11:16:29.052Z,2.39
2022-11-21T11:31:29.029Z,1.64
2022-11-21T11:46:29.266Z,0.99
2022-11-21T12:01:29.067Z,1.15
2022-11-21T12:16:29.309Z,1.28
2022-11-21T12:31:29.202Z,1.26
2022-11-21T12:46:29.137Z,1.31
2022-11-21T13:01:29.204Z,1.51
2022-11-21T13:16:29.128Z,1.24
2022-11-21T13:31:29.281Z,1.02
2022-11-21T13:46:29.236Z,1.19
2022-11-21T14:01:29.307Z,0.98
2022-11-21T14:16:29.294Z,1.39
2022-11-21T14:31:29.356Z,1.44
2022-11-21T14:46:29.448Z,1.92
2022-11-21T15:01:29.542Z,1.49
2022-11-21T15:16:29.441Z,1.42
2022-11-21T15:31:29.405Z,1.68
2022-11-21T15:46:29.551Z,1.45
2022-11-21T16:01:29.731Z,1.29
2022-11-21T16:16:29.566Z,1.35
2022-11-21T16:31:29.484Z,1.26
2022-11-21T16:46:29.636Z,1.93
2022-11-21T17:01:29.760Z,2.12
2022-11-21T17:16:29.667Z,1.98
2022-11-21T17:31:29.662Z,1.83
2022-11-21T17:46:29.697Z,1.57
2022-11-21T18:01:29.934Z,1.47
2022-11-21T18:16:29.799Z,1.96
2022-11-21T18:31:29.865Z,2.09
2022-11-21T18:46:30.054Z,2.80
2022-11-21T19:01:29.953Z,3.51
2022-11-21T19:16:30.059Z,2.99
2022-11-21T19:31:29.983Z,3.12
2022-11-21T19:46:29.946Z,3.39
2022-11-21T20:01:30.060Z,3.83
2022-11-21T20:16:29.991Z,3.46
2022-11-21T20:31:30.095Z,2.74
2022-11-21T20:46:30.094Z,2.76
2022-11-21T21:01:30.146Z,3.23
2022-11-21T21:16:30.081Z,3.71
2022-11-21T21:31:30.189Z,3.27
2022-11-21T21:46:30.230Z,3.39
2022-11-21T22:01:30.266Z,2.64
2022-11-21T22:16:30.235Z,2.86
2022-11-21T22:31:30.246Z,3.52
2022-11-21T22:46:30.344Z,3.49
2022-11-21T23:01:30.417Z,4.10
2022-11-21T23:16:30.311Z,3.65
2022-11-21T23:31:30.346Z,3.67
2022-11-21T23:46:30.436Z,4.00
